createdAt,value
2022-08-17T00:00:43.701Z,41.29
2022-08-17T00:03:11.275Z,41.36
2022-08-17T00:05:44.835Z,41.67
2022-08-17T00:08:15.359Z,42.01
2022-08-17T00:10:45.570Z,42.25
2022-08-17T00:13:25.777Z,41.94
2022-08-17T00:15:58.700Z,41.98
2022-08-17T00:19:00.936Z,42.09
2022-08-17T00:21:23.794Z,42.06
2022-08-17T00:23:54.199Z,42.14
2022-08-17T00:26:43.998Z,42.36
2022-08-17T00:29:19.957Z,42.33
2022-08-17T00:31:48.981Z,42.53
2022-08-17T00:34:17.879Z,42.55
2022-08-17T00:36:46.375Z,42.71
2022-08-17T00:39:14.712Z,42.83
2022-08-17T00:41:43.312Z,42.74
2022-08-17T00:44:13.217Z,42.81
2022-08-17T00:46:44.394Z,42.83
2022-08-17T00:49:14.334Z,43.09
2022-08-17T00:51:47.715Z,43.23
2022-08-17T00:54:22.543Z,43.06
2022-08-17T00:56:55.577Z,43.55
2022-08-17T00:59:33.555Z,43.51
2022-08-17T01:02:02.773Z,43.64
2022-08-17T01:04:32.877Z,43.50
2022-08-17T01:07:03.328Z,43.87
2022-08-17T01:09:33.131Z,43.99
2022-08-17T01:12:01.856Z,43.66
2022-08-17T01:14:31.627Z,43.90
2022-08-17T01:17:00.301Z,44.03
2022-08-17T01:19:34.296Z,43.97
2022-08-17T01:22:08.966Z,44.09
2022-08-17T01:24:41.587Z,44.06
2022-08-17T01:27:11.062Z,44.12
2022-08-17T01:29:42.849Z,43.81
2022-08-17T01:32:11.988Z,44.35
2022-08-17T01:34:43.787Z,44.46
2022-08-17T01:37:20.843Z,44.43
2022-08-17T01:39:55.701Z,44.75
2022-08-17T01:42:38.180Z,44.65
2022-08-17T01:45:11.613Z,44.63
2022-08-17T01:47:41.761Z,44.55
2022-08-17T01:50:16.390Z,44.78
2022-08-17T01:52:47.129Z,44.91
2022-08-17T01:55:20.861Z,44.72
2022-08-17T01:57:51.843Z,44.71
2022-08-17T02:00:20.327Z,44.63
2022-08-17T02:02:48.869Z,45.19
2022-08-17T02:05:18.393Z,44.79
2022-08-17T02:07:59.581Z,45.15
2022-08-17T02:10:33.876Z,45.34
2022-08-17T02:13:03.121Z,45.60
2022-08-17T02:15:32.046Z,45.25
2022-08-17T02:18:00.707Z,45.28
2022-08-17T02:20:41.809Z,45.41
2022-08-17T02:23:13.457Z,45.23
2022-08-17T02:25:45.162Z,45.45
2022-08-17T02:28:13.666Z,45.61
2022-08-17T02:31:00.094Z,45.72
2022-08-17T02:33:42.110Z,45.48
2022-08-17T02:36:13.942Z,46.05
2022-08-17T02:38:43.392Z,46.14
2022-08-17T02:41:13.431Z,45.74
2022-08-17T02:43:41.946Z,46.00
2022-08-17T02:46:12.629Z,45.96
2022-08-17T02:48:41.035Z,46.06
2022-08-17T02:51:09.484Z,45.88
2022-08-17T02:53:37.832Z,46.26
2022-08-17T02:56:06.448Z,46.17
2022-08-17T02:58:36.340Z,46.18
2022-08-17T03:01:06.465Z,46.34
2022-08-17T03:03:35.580Z,46.23
2022-08-17T03:06:05.278Z,46.55
2022-08-17T03:08:33.570Z,46.61
2022-08-17T03:11:01.904Z,46.45
2022-08-17T03:13:30.875Z,46.46
2022-08-17T03:16:00.732Z,46.63
2022-08-17T03:18:29.266Z,46.69
2022-08-17T03:21:01.230Z,46.67
2022-08-17T03:23:31.118Z,47.08
2022-08-17T03:26:00.297Z,46.72
2022-08-17T03:28:29.382Z,46.89
2022-08-17T03:30:57.760Z,46.89
2022-08-17T03:33:27.588Z,47.24
2022-08-17T03:35:56.270Z,47.17
2022-08-17T03:38:24.870Z,47.18
2022-08-17T03:40:56.389Z,47.54
2022-08-17T03:43:29.706Z,47.54
2022-08-17T03:46:27.775Z,47.37
2022-08-17T03:49:19.430Z,47.54
2022-08-17T03:52:05.246Z,47.67
2022-08-17T03:55:05.235Z,47.82
2022-08-17T03:57:33.927Z,47.65
2022-08-17T04:00:02.298Z,47.53
2022-08-17T04:02:34.230Z,47.74
2022-08-17T04:05:04.275Z,47.50
2022-08-17T04:07:33.092Z,47.65
2022-08-17T04:10:01.831Z,47.65
2022-08-17T04:12:44.169Z,47.76
2022-08-17T04:15:13.928Z,47.91
2022-08-17T04:17:44.225Z,47.78
2022-08-17T04:20:16.441Z,47.66
2022-08-17T04:22:58.361Z,47.57
2022-08-17T04:25:28.450Z,48.11
2022-08-17T04:27:57.991Z,48.04
2022-08-17T04:30:27.855Z,47.97
2022-08-17T04:33:05.837Z,48.10
2022-08-17T04:35:40.317Z,47.97
2022-08-17T04:38:14.020Z,47.99
2022-08-17T04:41:00.576Z,48.00
2022-08-17T04:43:30.975Z,48.00
2022-08-17T04:46:02.796Z,48.21
2022-08-17T04:48:37.433Z,48.34
2022-08-17T04:51:11.628Z,48.35
2022-08-17T04:53:42.283Z,48.00
2022-08-17T04:56:17.008Z,48.41
2022-08-17T04:58:51.773Z,48.19
2022-08-17T05:01:23.127Z,48.47
2022-08-17T05:03:53.213Z,48.18
2022-08-17T05:06:23.635Z,48.50
2022-08-17T05:08:51.974Z,48.43
2022-08-17T05:11:20.921Z,48.42
2022-08-17T05:13:50.711Z,48.53
2022-08-17T05:16:20.331Z,48.34
2022-08-17T05:18:49.032Z,48.80
2022-08-17T05:21:19.077Z,48.82
2022-08-17T05:23:53.895Z,48.67
2022-08-17T05:26:26.534Z,48.87
2022-08-17T05:28:59.471Z,48.85
2022-08-17T05:31:29.964Z,48.86
2022-08-17T05:33:58.708Z,48.91
2022-08-17T05:36:41.592Z,48.85
2022-08-17T05:39:16.668Z,48.68
2022-08-17T05:41:49.335Z,48.55
2022-08-17T05:44:18.346Z,49.02
2022-08-17T05:46:51.576Z,48.77
2022-08-17T05:49:27.512Z,48.65
2022-08-17T05:52:20.030Z,48.74
2022-08-17T05:55:04.975Z,48.46
2022-08-17T05:57:57.259Z,48.47
2022-08-17T06:00:30.665Z,48.79
2022-08-17T06:03:20.492Z,48.87
2022-08-17T06:06:05.943Z,48.99
2022-08-17T06:08:40.730Z,48.97
2022-08-17T06:11:22.762Z,48.87
2022-08-17T06:14:18.174Z,48.70
2022-08-17T06:16:51.302Z,49.12
2022-08-17T06:19:25.656Z,48.64
2022-08-17T06:21:56.090Z,48.60
2022-08-17T06:24:35.410Z,48.68
2022-08-17T06:27:17.839Z,48.50
2022-08-17T06:29:55.907Z,48.38
2022-08-17T06:32:25.119Z,48.12
2022-08-17T06:34:54.356Z,48.09
2022-08-17T06:37:56.800Z,47.71
2022-08-17T06:40:50.809Z,47.68
2022-08-17T06:43:35.459Z,47.17
2022-08-17T06:46:11.420Z,47.00
2022-08-17T06:48:47.207Z,46.84
2022-08-17T06:51:23.992Z,46.22
2022-08-17T06:54:00.778Z,46.10
2022-08-17T06:56:54.723Z,45.83
2022-08-17T06:59:54.225Z,45.51
2022-08-17T07:02:52.843Z,45.67
2022-08-17T07:05:25.523Z,44.92
2022-08-17T07:08:03.238Z,45.05
2022-08-17T07:10:40.775Z,44.73
2022-08-17T07:13:29.496Z,44.04
2022-08-17T07:16:26.065Z,43.78
2022-08-17T07:18:56.219Z,43.25
2022-08-17T07:21:40.932Z,43.08
2022-08-17T07:24:29.715Z,42.75
2022-08-17T07:27:18.204Z,43.19
2022-08-17T07:29:51.730Z,43.15
2022-08-17T07:32:26.843Z,42.13
2022-08-17T07:35:10.622Z,41.78
2022-08-17T07:37:41.308Z,41.52
2022-08-17T07:40:28.151Z,41.84
2022-08-17T07:43:23.267Z,41.63
2022-08-17T07:46:36.763Z,41.18
2022-08-17T07:49:36.257Z,41.25
2022-08-17T07:52:48.275Z,40.55
2022-08-17T07:54:58.109Z,39.88
2022-08-17T07:57:35.674Z,39.40
2022-08-17T08:00:24.363Z,39.86
2022-08-17T08:03:16.647Z,39.93
2022-08-17T08:06:00.210Z,39.14
2022-08-17T08:08:36.876Z,38.39
2022-08-17T08:11:10.028Z,38.19
2022-08-17T08:13:42.709Z,37.68
2022-08-17T08:16:26.419Z,37.39
2022-08-17T08:18:59.008Z,36.77
2022-08-17T08:21:47.219Z,36.75
2022-08-17T08:24:50.172Z,36.72
2022-08-17T08:27:33.546Z,36.29
2022-08-17T08:30:09.271Z,36.24
2022-08-17T08:33:04.158Z,35.58
2022-08-17T08:35:37.275Z,34.95
2022-08-17T08:38:20.324Z,34.25
2022-08-17T08:41:05.610Z,34.70
2022-08-17T08:43:52.243Z,34.76
2022-08-17T08:46:32.081Z,34.51
2022-08-17T08:50:01.264Z,33.95
2022-08-17T08:52:42.215Z,33.37
2022-08-17T08:55:23.315Z,33.21
2022-08-17T08:57:58.167Z,32.16
2022-08-17T09:00:28.198Z,32.36
2022-08-17T09:03:53.268Z,32.80
2022-08-17T09:06:39.284Z,31.60
2022-08-17T09:09:21.436Z,31.40
2022-08-17T09:12:09.903Z,31.52
2022-08-17T09:14:46.645Z,29.73
2022-08-17T09:17:20.528Z,30.29
2022-08-17T09:19:55.937Z,29.87
2022-08-17T09:22:33.405Z,28.57
2022-08-17T09:25:10.397Z,28.38
2022-08-17T09:27:52.606Z,28.57
2022-08-17T09:30:23.712Z,26.55
2022-08-17T09:32:58.916Z,27.03
2022-08-17T09:35:36.899Z,26.44
2022-08-17T09:38:20.452Z,25.39
2022-08-17T09:40:54.178Z,25.18
2022-08-17T09:43:35.336Z,24.76
2022-08-17T09:46:11.221Z,24.78
2022-08-17T09:48:44.979Z,24.04
2022-08-17T09:51:21.150Z,23.86
2022-08-17T09:53:50.143Z,23.17
2022-08-17T09:56:46.183Z,23.37
2022-08-17T09:59:38.679Z,22.97
2022-08-17T10:02:40.552Z,22.62
2022-08-17T10:05:14.831Z,21.65
2022-08-17T10:07:48.959Z,21.87
2022-08-17T10:10:24.988Z,22.39
2022-08-17T10:13:01.153Z,21.85
2022-08-17T10:15:49.765Z,22.63
2022-08-17T10:18:39.380Z,21.47
2022-08-17T10:21:34.160Z,21.44
2022-08-17T10:24:34.299Z,21.24
2022-08-17T10:27:10.701Z,21.78
2022-08-17T10:29:48.992Z,22.11
2022-08-17T10:32:32.115Z,21.90
2022-08-17T10:35:34.049Z,22.39
2022-08-17T10:38:37.512Z,22.38
2022-08-17T10:41:22.210Z,21.66
2022-08-17T10:44:38.120Z,21.93
2022-08-17T10:47:06.700Z,21.38
2022-08-17T10:49:37.394Z,20.68
2022-08-17T10:52:50.229Z,20.57
2022-08-17T10:55:21.449Z,21.26
2022-08-17T10:57:54.864Z,21.12
2022-08-17T11:00:59.961Z,20.63
2022-08-17T11:03:28.676Z,20.87
2022-08-17T11:06:15.915Z,20.91
2022-08-17T11:09:24.281Z,20.73
2022-08-17T11:12:19.029Z,21.00
2022-08-17T11:15:11.209Z,20.87
2022-08-17T11:18:01.516Z,20.80
2022-08-17T11:21:18.558Z,20.02
2022-08-17T11:24:20.642Z,19.27
2022-08-17T11:27:12.372Z,19.31
2022-08-17T11:29:54.206Z,18.73
2022-08-17T11:32:47.070Z,18.98
2022-08-17T11:35:34.751Z,19.24
2022-08-17T11:38:17.756Z,18.87
2022-08-17T11:41:17.464Z,19.58
2022-08-17T11:44:04.183Z,19.40
2022-08-17T11:47:08.789Z,18.99
2022-08-17T11:50:17.137Z,19.21
2022-08-17T11:52:49.043Z,18.71
2022-08-17T11:56:04.783Z,18.91
2022-08-17T11:58:42.775Z,18.19
2022-08-17T12:01:16.193Z,17.43
2022-08-17T12:03:58.860Z,17.42
2022-08-17T12:06:46.191Z,18.29
2022-08-17T12:09:20.745Z,17.98
2022-08-17T12:12:12.158Z,17.60
2022-08-17T12:15:09.577Z,18.09
2022-08-17T12:17:41.162Z,18.67
2022-08-17T12:20:17.178Z,18.38
2022-08-17T12:22:57.596Z,18.23
2022-08-17T12:25:35.683Z,18.50
2022-08-17T12:28:07.606Z,17.92
2022-08-17T12:30:37.876Z,17.49
2022-08-17T12:33:25.629Z,18.10
2022-08-17T12:36:00.638Z,17.57
2022-08-17T12:38:32.275Z,17.56
2022-08-17T12:41:24.477Z,17.48
2022-08-17T12:44:02.803Z,17.58
2022-08-17T12:46:34.904Z,16.93
2022-08-17T12:49:15.490Z,17.44
2022-08-17T12:51:45.933Z,17.25
2022-08-17T12:54:28.501Z,17.56
2022-08-17T12:56:57.502Z,17.12
2022-08-17T12:59:29.706Z,17.93
2022-08-17T13:01:59.200Z,17.58
2022-08-17T13:04:29.550Z,17.02
2022-08-17T13:06:59.933Z,17.27
2022-08-17T13:09:40.096Z,16.71
2022-08-17T13:12:09.579Z,16.56
2022-08-17T13:14:39.412Z,16.37
2022-08-17T13:17:13.344Z,17.17
2022-08-17T13:19:51.001Z,16.90
2022-08-17T13:22:25.309Z,17.78
2022-08-17T13:24:57.642Z,17.58
2022-08-17T13:27:29.753Z,17.77
2022-08-17T13:30:02.604Z,17.37
2022-08-17T13:32:43.893Z,17.89
2022-08-17T13:35:50.518Z,17.77
2022-08-17T13:38:41.098Z,17.50
2022-08-17T13:41:09.528Z,18.15
2022-08-17T13:43:50.545Z,17.50
2022-08-17T13:46:24.351Z,17.64
2022-08-17T13:49:02.636Z,17.25
2022-08-17T13:51:45.819Z,17.64
2022-08-17T13:54:29.215Z,17.43
2022-08-17T13:57:02.421Z,17.56
2022-08-17T13:59:54.688Z,17.99
2022-08-17T14:02:28.772Z,17.37
2022-08-17T14:07:37.232Z,17.14
2022-08-17T14:10:12.265Z,17.22
2022-08-17T14:12:43.518Z,17.38
2022-08-17T14:15:16.429Z,17.23
2022-08-17T14:17:46.672Z,17.17
2022-08-17T14:20:17.131Z,17.36
2022-08-17T14:22:49.484Z,17.14
2022-08-17T14:25:21.860Z,16.52
2022-08-17T14:27:53.594Z,17.50
2022-08-17T14:30:25.394Z,17.10
2022-08-17T14:32:56.471Z,17.53
2022-08-17T14:35:27.853Z,17.24
2022-08-17T14:37:57.062Z,17.09
2022-08-17T14:40:26.320Z,16.92
2022-08-17T14:42:56.646Z,17.28
2022-08-17T14:45:32.003Z,17.31
2022-08-17T14:48:05.779Z,16.84
2022-08-17T14:50:35.369Z,17.07
2022-08-17T14:53:05.864Z,17.54
2022-08-17T14:55:34.545Z,16.94
2022-08-17T14:58:04.014Z,17.28
2022-08-17T15:00:32.526Z,17.22
2022-08-17T15:03:03.495Z,17.17
2022-08-17T15:05:35.245Z,17.50
2022-08-17T15:08:05.650Z,17.73
2022-08-17T15:10:34.596Z,17.66
2022-08-17T15:13:03.156Z,17.80
2022-08-17T15:15:32.047Z,18.01
2022-08-17T15:18:01.196Z,17.85
2022-08-17T15:20:31.707Z,18.45
2022-08-17T15:23:00.247Z,17.82
2022-08-17T15:25:32.088Z,18.37
2022-08-17T15:28:01.330Z,18.11
2022-08-17T15:30:31.025Z,18.18
2022-08-17T15:33:01.813Z,17.94
2022-08-17T15:35:34.699Z,18.32
2022-08-17T15:38:12.140Z,18.43
2022-08-17T15:40:45.082Z,18.28
2022-08-17T15:43:20.119Z,17.91
2022-08-17T15:46:01.795Z,17.87
2022-08-17T15:48:42.102Z,17.64
2022-08-17T15:51:15.863Z,17.69
2022-08-17T15:53:46.691Z,17.85
2022-08-17T15:56:15.503Z,17.75
2022-08-17T15:58:46.649Z,17.77
2022-08-17T16:01:31.331Z,17.66
2022-08-17T16:04:07.133Z,17.71
2022-08-17T16:06:56.106Z,17.86
2022-08-17T16:09:24.557Z,17.43
2022-08-17T16:11:55.714Z,17.58
2022-08-17T16:14:25.266Z,17.44
2022-08-17T16:17:02.103Z,17.27
2022-08-17T16:19:30.555Z,17.43
2022-08-17T16:22:00.787Z,17.70
2022-08-17T16:24:29.643Z,18.34
2022-08-17T16:26:58.103Z,18.42
2022-08-17T16:29:26.652Z,18.34
2022-08-17T16:31:55.992Z,18.36
2022-08-17T16:34:24.700Z,18.42
2022-08-17T16:36:56.138Z,18.81
2022-08-17T16:39:29.079Z,18.88
2022-08-17T16:41:58.189Z,18.88
2022-08-17T16:44:30.973Z,18.98
2022-08-17T16:47:00.993Z,18.87
2022-08-17T16:49:36.929Z,19.09
2022-08-17T16:52:11.294Z,19.25
2022-08-17T16:54:45.478Z,18.94
2022-08-17T16:57:17.444Z,20.12
2022-08-17T16:59:51.444Z,19.71
2022-08-17T17:02:28.692Z,19.55
2022-08-17T17:05:05.092Z,20.76
2022-08-17T17:07:51.035Z,21.01
2022-08-17T17:10:26.050Z,21.18
2022-08-17T17:13:01.934Z,21.35
2022-08-17T17:15:51.775Z,21.69
2022-08-17T17:18:26.946Z,21.21
2022-08-17T17:20:58.450Z,21.25
2022-08-17T17:23:44.875Z,21.07
2022-08-17T17:26:51.651Z,21.49
2022-08-17T17:29:48.325Z,21.26
2022-08-17T17:32:23.072Z,21.56
2022-08-17T17:34:58.848Z,21.55
2022-08-17T17:37:33.945Z,21.65
2022-08-17T17:40:09.608Z,21.38
2022-08-17T17:42:42.706Z,22.63
2022-08-17T17:45:20.399Z,22.11
2022-08-17T17:47:49.629Z,22.72
2022-08-17T17:50:20.841Z,23.00
2022-08-17T17:53:00.408Z,23.34
2022-08-17T17:55:45.616Z,22.92
2022-08-17T17:58:33.013Z,23.06
2022-08-17T18:01:21.398Z,23.44
2022-08-17T18:04:20.681Z,22.93
2022-08-17T18:07:16.700Z,23.36
2022-08-17T18:10:19.590Z,23.10
2022-08-17T18:13:10.385Z,23.26
2022-08-17T18:15:51.161Z,23.44
2022-08-17T18:18:37.814Z,24.50
2022-08-17T18:21:15.842Z,24.04
2022-08-17T18:23:56.835Z,24.33
2022-08-17T18:26:43.808Z,24.77
2022-08-17T18:29:34.452Z,24.71
2022-08-17T18:32:35.494Z,25.24
2022-08-17T18:35:31.457Z,24.50
2022-08-17T18:38:21.953Z,25.00
2022-08-17T18:41:03.019Z,25.77
2022-08-17T18:43:44.036Z,26.15
2022-08-17T18:46:30.099Z,26.01
2022-08-17T18:49:03.179Z,25.56
2022-08-17T18:51:42.194Z,25.47
2022-08-17T18:54:22.449Z,26.56
2022-08-17T18:56:55.361Z,26.90
2022-08-17T18:59:33.573Z,26.54
2022-08-17T19:02:36.098Z,26.66
2022-08-17T19:05:27.863Z,26.81
2022-08-17T19:08:20.285Z,27.23
2022-08-17T19:10:52.021Z,27.13
2022-08-17T19:13:26.216Z,26.83
2022-08-17T19:16:13.814Z,26.93
2022-08-17T19:18:49.463Z,27.76
2022-08-17T19:21:24.651Z,27.94
2022-08-17T19:24:00.433Z,27.95
2022-08-17T19:26:54.856Z,28.10
2022-08-17T19:29:26.668Z,28.36
2022-08-17T19:32:00.301Z,28.89
2022-08-17T19:34:35.464Z,28.27
2022-08-17T19:37:11.856Z,28.18
2022-08-17T19:39:50.973Z,28.09
2022-08-17T19:42:33.958Z,28.75
2022-08-17T19:45:09.366Z,29.35
2022-08-17T19:47:57.846Z,29.55
2022-08-17T19:50:39.131Z,29.55
2022-08-17T19:53:33.201Z,29.46
2022-08-17T19:56:22.293Z,29.85
2022-08-17T19:59:01.309Z,29.81
2022-08-17T20:01:38.536Z,29.98
2022-08-17T20:04:15.847Z,30.10
2022-08-17T20:06:49.366Z,30.14
2022-08-17T20:09:36.335Z,30.22
2022-08-17T20:12:10.626Z,29.97
2022-08-17T20:14:53.912Z,30.58
2022-08-17T20:17:28.281Z,29.80
2022-08-17T20:20:07.540Z,29.61
2022-08-17T20:22:56.094Z,29.58
2022-08-17T20:25:36.961Z,29.69
2022-08-17T20:28:24.887Z,29.88
2022-08-17T20:30:53.917Z,30.41
2022-08-17T20:33:28.840Z,30.64
2022-08-17T20:36:21.013Z,30.24
2022-08-17T20:38:53.603Z,30.87
2022-08-17T20:41:25.773Z,31.11
2022-08-17T20:44:06.538Z,30.84
2022-08-17T20:46:56.895Z,31.02
2022-08-17T20:49:37.091Z,31.88
2022-08-17T20:52:09.967Z,32.08
2022-08-17T20:54:51.804Z,31.47
2022-08-17T20:57:53.991Z,31.44
2022-08-17T21:00:46.321Z,31.63
2022-08-17T21:03:52.278Z,32.07
2022-08-17T21:06:26.295Z,32.51
2022-08-17T21:08:59.315Z,32.55
2022-08-17T21:12:00.028Z,32.63
2022-08-17T21:14:58.683Z,32.70
2022-08-17T21:17:46.501Z,32.61
2022-08-17T21:20:32.513Z,33.10
2022-08-17T21:23:28.469Z,33.01
2022-08-17T21:26:21.101Z,32.76
2022-08-17T21:29:29.558Z,33.59
2022-08-17T21:32:24.155Z,33.13
2022-08-17T21:35:28.618Z,33.39
2022-08-17T21:38:05.166Z,33.19
2022-08-17T21:40:35.483Z,33.97
2022-08-17T21:43:23.404Z,33.64
2022-08-17T21:46:24.429Z,33.82
2022-08-17T21:48:57.261Z,34.25
2022-08-17T21:51:28.183Z,34.38
2022-08-17T21:54:00.406Z,34.40
2022-08-17T21:56:36.580Z,35.04
2022-08-17T21:59:08.068Z,34.97
2022-08-17T22:01:38.641Z,34.97
2022-08-17T22:04:21.702Z,34.51
2022-08-17T22:06:57.063Z,34.63
2022-08-17T22:09:31.471Z,34.54
2022-08-17T22:12:06.262Z,34.98
2022-08-17T22:14:51.477Z,34.67
2022-08-17T22:17:25.847Z,35.34
2022-08-17T22:19:59.310Z,34.98
2022-08-17T22:22:58.154Z,35.28
2022-08-17T22:25:29.604Z,35.53
2022-08-17T22:28:01.161Z,35.57
2022-08-17T22:30:35.985Z,35.89
2022-08-17T22:33:36.913Z,34.37
2022-08-17T22:36:29.151Z,36.12
2022-08-17T22:38:59.242Z,34.87
2022-08-17T22:41:53.975Z,36.72
2022-08-17T22:44:28.070Z,38.65
2022-08-17T22:47:20.412Z,38.93
2022-08-17T22:49:57.769Z,40.48
2022-08-17T22:52:57.023Z,40.26
2022-08-17T22:55:44.137Z,41.23
2022-08-17T22:58:31.714Z,41.76
2022-08-17T23:01:25.572Z,41.52
2022-08-17T23:03:55.876Z,42.26
2022-08-17T23:06:24.798Z,42.99
2022-08-17T23:08:56.628Z,42.90
2022-08-17T23:11:42.994Z,43.77
2022-08-17T23:14:19.139Z,43.52
2022-08-17T23:16:48.262Z,43.85
2022-08-17T23:19:21.611Z,44.81
2022-08-17T23:21:55.343Z,44.66
2022-08-17T23:24:27.795Z,44.71
2022-08-17T23:26:58.142Z,45.22
2022-08-17T23:29:29.445Z,45.36
2022-08-17T23:31:59.999Z,45.19
2022-08-17T23:34:29.825Z,45.66
2022-08-17T23:36:58.328Z,45.33
2022-08-17T23:39:28.466Z,45.83
2022-08-17T23:41:57.932Z,45.80
2022-08-17T23:44:27.241Z,46.22
2022-08-17T23:46:56.087Z,46.68
2022-08-17T23:49:25.194Z,46.95
2022-08-17T23:51:55.260Z,46.17
2022-08-17T23:54:28.355Z,46.50
2022-08-17T23:56:56.739Z,46.37
2022-08-17T23:59:27.456Z,47.71
